sensor_id;sensor_type;location;lat;lon;timestamp;P1;durP1;ratioP1;P2;durP2;ratioP2
71867;SDS011;59738;48.324;14.230;2023-04-16T00:00:13;7.28;;;4.57;;
71867;SDS011;59738;48.324;14.230;2023-04-16T00:02:40;9.15;;;4.97;;
71867;SDS011;59738;48.324;14.230;2023-04-16T00:05:08;6.80;;;4.88;;
71867;SDS011;59738;48.324;14.230;2023-04-16T00:07:36;6.20;;;4.70;;
71867;SDS011;59738;48.324;14.230;2023-04-16T00:10:04;9.33;;;5.13;;
71867;SDS011;59738;48.324;14.230;2023-04-16T00:12:31;6.30;;;4.22;;
71867;SDS011;59738;48.324;14.230;2023-04-16T00:14:58;8.15;;;4.70;;
71867;SDS011;59738;48.324;14.230;2023-04-16T00:17:25;7.05;;;4.88;;
71867;SDS011;59738;48.324;14.230;2023-04-16T00:19:53;8.18;;;5.18;;
71867;SDS011;59738;48.324;14.230;2023-04-16T00:22:20;10.93;;;5.67;;
71867;SDS011;59738;48.324;14.230;2023-04-16T00:24:48;8.90;;;5.80;;
71867;SDS011;59738;48.324;14.230;2023-04-16T00:27:15;8.48;;;5.85;;
71867;SDS011;59738;48.324;14.230;2023-04-16T00:29:42;11.48;;;5.63;;
71867;SDS011;59738;48.324;14.230;2023-04-16T00:32:09;18.10;;;6.07;;
71867;SDS011;59738;48.324;14.230;2023-04-16T00:34:36;10.73;;;6.63;;
71867;SDS011;59738;48.324;14.230;2023-04-16T00:37:03;9.98;;;6.00;;
71867;SDS011;59738;48.324;14.230;2023-04-16T00:39:31;11.05;;;5.93;;
71867;SDS011;59738;48.324;14.230;2023-04-16T00:41:59;7.20;;;4.97;;
71867;SDS011;59738;48.324;14.230;2023-04-16T00:44:26;9.13;;;5.03;;
71867;SDS011;59738;48.324;14.230;2023-04-16T00:46:54;8.87;;;5.47;;
71867;SDS011;59738;48.324;14.230;2023-04-16T00:49:22;9.90;;;5.95;;
71867;SDS011;59738;48.324;14.230;2023-04-16T00:51:49;10.55;;;6.50;;
71867;SDS011;59738;48.324;14.230;2023-04-16T00:54:16;8.57;;;5.25;;
71867;SDS011;59738;48.324;14.230;2023-04-16T00:56:43;10.55;;;5.75;;
71867;SDS011;59738;48.324;14.230;2023-04-16T00:59:11;9.43;;;5.77;;
71867;SDS011;59738;48.324;14.230;2023-04-16T01:01:39;10.48;;;5.82;;
71867;SDS011;59738;48.324;14.230;2023-04-16T01:04:06;8.63;;;5.32;;
71867;SDS011;59738;48.324;14.230;2023-04-16T01:06:33;8.18;;;4.80;;
71867;SDS011;59738;48.324;14.230;2023-04-16T01:09:00;5.88;;;3.78;;
71867;SDS011;59738;48.324;14.230;2023-04-16T01:11:28;5.00;;;3.90;;
71867;SDS011;59738;48.324;14.230;2023-04-16T01:13:55;7.15;;;4.20;;
71867;SDS011;59738;48.324;14.230;2023-04-16T01:16:23;7.30;;;4.70;;
71867;SDS011;59738;48.324;14.230;2023-04-16T01:18:51;6.53;;;4.20;;
71867;SDS011;59738;48.324;14.230;2023-04-16T01:21:20;8.20;;;4.25;;
71867;SDS011;59738;48.324;14.230;2023-04-16T01:23:47;5.37;;;3.70;;
71867;SDS011;59738;48.324;14.230;2023-04-16T01:26:14;5.80;;;4.20;;
71867;SDS011;59738;48.324;14.230;2023-04-16T01:28:41;6.82;;;4.40;;
71867;SDS011;59738;48.324;14.230;2023-04-16T01:31:08;5.43;;;3.75;;
71867;SDS011;59738;48.324;14.230;2023-04-16T01:34:07;5.75;;;3.90;;
71867;SDS011;59738;48.324;14.230;2023-04-16T01:36:36;5.87;;;4.17;;
71867;SDS011;59738;48.324;14.230;2023-04-16T01:39:03;7.47;;;4.50;;
71867;SDS011;59738;48.324;14.230;2023-04-16T01:41:30;6.13;;;4.30;;
71867;SDS011;59738;48.324;14.230;2023-04-16T01:43:57;6.15;;;4.35;;
71867;SDS011;59738;48.324;14.230;2023-04-16T01:46:26;6.63;;;4.32;;
71867;SDS011;59738;48.324;14.230;2023-04-16T01:48:53;7.13;;;4.30;;
71867;SDS011;59738;48.324;14.230;2023-04-16T01:51:20;6.55;;;3.97;;
71867;SDS011;59738;48.324;14.230;2023-04-16T01:53:49;7.80;;;4.85;;
71867;SDS011;59738;48.324;14.230;2023-04-16T01:56:16;7.38;;;4.63;;
71867;SDS011;59738;48.324;14.230;2023-04-16T01:58:43;8.05;;;4.63;;
71867;SDS011;59738;48.324;14.230;2023-04-16T02:01:12;5.63;;;3.90;;
71867;SDS011;59738;48.324;14.230;2023-04-16T02:03:39;8.07;;;4.78;;
71867;SDS011;59738;48.324;14.230;2023-04-16T02:06:06;5.88;;;3.97;;
71867;SDS011;59738;48.324;14.230;2023-04-16T02:08:34;8.10;;;5.15;;
71867;SDS011;59738;48.324;14.230;2023-04-16T02:11:03;7.13;;;4.50;;
71867;SDS011;59738;48.324;14.230;2023-04-16T02:13:30;7.87;;;5.17;;
71867;SDS011;59738;48.324;14.230;2023-04-16T02:15:57;8.70;;;4.68;;
71867;SDS011;59738;48.324;14.230;2023-04-16T02:18:48;8.27;;;5.00;;
71867;SDS011;59738;48.324;14.230;2023-04-16T02:21:17;7.45;;;4.93;;
71867;SDS011;59738;48.324;14.230;2023-04-16T02:23:45;8.23;;;5.57;;
71867;SDS011;59738;48.324;14.230;2023-04-16T02:26:19;8.13;;;5.57;;
71867;SDS011;59738;48.324;14.230;2023-04-16T02:28:47;7.78;;;4.80;;
71867;SDS011;59738;48.324;14.230;2023-04-16T02:31:17;8.50;;;4.93;;
71867;SDS011;59738;48.324;14.230;2023-04-16T02:33:44;8.32;;;5.05;;
71867;SDS011;59738;48.324;14.230;2023-04-16T02:36:11;7.70;;;4.55;;
71867;SDS011;59738;48.324;14.230;2023-04-16T02:38:38;7.37;;;4.53;;
71867;SDS011;59738;48.324;14.230;2023-04-16T02:41:06;7.55;;;4.75;;
71867;SDS011;59738;48.324;14.230;2023-04-16T02:43:34;8.02;;;4.60;;
71867;SDS011;59738;48.324;14.230;2023-04-16T02:46:01;7.15;;;4.55;;
71867;SDS011;59738;48.324;14.230;2023-04-16T02:48:29;6.63;;;4.53;;
71867;SDS011;59738;48.324;14.230;2023-04-16T02:50:56;6.37;;;4.20;;
71867;SDS011;59738;48.324;14.230;2023-04-16T02:53:23;6.70;;;4.32;;
71867;SDS011;59738;48.324;14.230;2023-04-16T02:55:50;8.13;;;5.20;;
71867;SDS011;59738;48.324;14.230;2023-04-16T02:58:18;9.70;;;4.88;;
71867;SDS011;59738;48.324;14.230;2023-04-16T03:00:47;8.10;;;4.68;;
71867;SDS011;59738;48.324;14.230;2023-04-16T03:03:14;6.50;;;4.43;;
71867;SDS011;59738;48.324;14.230;2023-04-16T03:05:41;6.30;;;4.38;;
71867;SDS011;59738;48.324;14.230;2023-04-16T03:08:09;6.15;;;4.82;;
71867;SDS011;59738;48.324;14.230;2023-04-16T03:10:36;6.50;;;4.45;;
71867;SDS011;59738;48.324;14.230;2023-04-16T03:13:03;6.18;;;3.90;;
71867;SDS011;59738;48.324;14.230;2023-04-16T03:15:30;7.93;;;4.53;;
71867;SDS011;59738;48.324;14.230;2023-04-16T03:17:59;8.52;;;4.70;;
71867;SDS011;59738;48.324;14.230;2023-04-16T03:20:27;8.93;;;5.32;;
71867;SDS011;59738;48.324;14.230;2023-04-16T03:22:54;9.57;;;4.65;;
71867;SDS011;59738;48.324;14.230;2023-04-16T03:25:21;8.27;;;5.00;;
71867;SDS011;59738;48.324;14.230;2023-04-16T03:27:49;7.77;;;4.93;;
71867;SDS011;59738;48.324;14.230;2023-04-16T03:30:16;8.25;;;5.13;;
71867;SDS011;59738;48.324;14.230;2023-04-16T03:32:43;9.75;;;5.63;;
71867;SDS011;59738;48.324;14.230;2023-04-16T03:35:12;7.78;;;4.95;;
71867;SDS011;59738;48.324;14.230;2023-04-16T03:37:39;8.32;;;5.47;;
71867;SDS011;59738;48.324;14.230;2023-04-16T03:40:07;7.50;;;5.03;;
71867;SDS011;59738;48.324;14.230;2023-04-16T03:42:34;8.63;;;5.40;;
71867;SDS011;59738;48.324;14.230;2023-04-16T03:45:02;7.55;;;5.13;;
71867;SDS011;59738;48.324;14.230;2023-04-16T03:47:31;9.23;;;4.85;;
71867;SDS011;59738;48.324;14.230;2023-04-16T03:50:01;7.22;;;4.82;;
71867;SDS011;59738;48.324;14.230;2023-04-16T03:52:29;6.33;;;4.67;;
71867;SDS011;59738;48.324;14.230;2023-04-16T03:54:56;7.85;;;4.63;;
71867;SDS011;59738;48.324;14.230;2023-04-16T03:57:26;5.65;;;4.35;;
71867;SDS011;59738;48.324;14.230;2023-04-16T03:59:57;7.03;;;4.90;;
71867;SDS011;59738;48.324;14.230;2023-04-16T04:02:27;6.75;;;4.20;;
71867;SDS011;59738;48.324;14.230;2023-04-16T04:04:55;7.57;;;5.03;;
71867;SDS011;59738;48.324;14.230;2023-04-16T04:07:22;8.20;;;4.80;;
71867;SDS011;59738;48.324;14.230;2023-04-16T04:09:52;7.22;;;4.50;;
71867;SDS011;59738;48.324;14.230;2023-04-16T04:12:19;7.57;;;4.63;;
71867;SDS011;59738;48.324;14.230;2023-04-16T04:14:47;8.27;;;5.10;;
71867;SDS011;59738;48.324;14.230;2023-04-16T04:17:14;7.40;;;4.50;;
71867;SDS011;59738;48.324;14.230;2023-04-16T04:19:41;6.47;;;4.60;;
71867;SDS011;59738;48.324;14.230;2023-04-16T04:22:08;5.82;;;3.95;;
71867;SDS011;59738;48.324;14.230;2023-04-16T04:24:37;8.15;;;4.88;;
71867;SDS011;59738;48.324;14.230;2023-04-16T04:27:05;8.02;;;5.20;;
71867;SDS011;59738;48.324;14.230;2023-04-16T04:29:32;7.20;;;5.03;;
71867;SDS011;59738;48.324;14.230;2023-04-16T04:31:59;7.45;;;4.28;;
71867;SDS011;59738;48.324;14.230;2023-04-16T04:34:27;8.23;;;5.18;;
71867;SDS011;59738;48.324;14.230;2023-04-16T04:36:56;6.07;;;4.22;;
71867;SDS011;59738;48.324;14.230;2023-04-16T04:39:25;6.50;;;4.75;;
71867;SDS011;59738;48.324;14.230;2023-04-16T04:41:52;8.13;;;4.70;;
71867;SDS011;59738;48.324;14.230;2023-04-16T04:44:20;7.30;;;5.00;;
71867;SDS011;59738;48.324;14.230;2023-04-16T04:46:47;8.02;;;4.60;;
71867;SDS011;59738;48.324;14.230;2023-04-16T04:49:15;8.82;;;4.65;;
71867;SDS011;59738;48.324;14.230;2023-04-16T04:51:42;7.28;;;4.57;;
71867;SDS011;59738;48.324;14.230;2023-04-16T04:54:09;7.47;;;4.37;;
71867;SDS011;59738;48.324;14.230;2023-04-16T04:56:36;9.60;;;5.55;;
71867;SDS011;59738;48.324;14.230;2023-04-16T04:59:03;10.05;;;5.07;;
71867;SDS011;59738;48.324;14.230;2023-04-16T05:01:32;9.25;;;5.40;;
71867;SDS011;59738;48.324;14.230;2023-04-16T05:03:59;7.18;;;5.28;;
71867;SDS011;59738;48.324;14.230;2023-04-16T05:06:26;8.20;;;5.03;;
71867;SDS011;59738;48.324;14.230;2023-04-16T05:08:53;8.45;;;5.30;;
71867;SDS011;59738;48.324;14.230;2023-04-16T05:11:20;7.30;;;4.65;;
71867;SDS011;59738;48.324;14.230;2023-04-16T05:13:47;7.95;;;5.20;;
71867;SDS011;59738;48.324;14.230;2023-04-16T05:16:14;8.35;;;4.68;;
71867;SDS011;59738;48.324;14.230;2023-04-16T05:18:42;7.63;;;4.93;;
71867;SDS011;59738;48.324;14.230;2023-04-16T05:21:10;8.95;;;5.55;;
71867;SDS011;59738;48.324;14.230;2023-04-16T05:23:37;8.63;;;4.80;;
71867;SDS011;59738;48.324;14.230;2023-04-16T05:26:04;9.13;;;5.18;;
71867;SDS011;59738;48.324;14.230;2023-04-16T05:28:31;9.73;;;5.43;;
71867;SDS011;59738;48.324;14.230;2023-04-16T05:30:58;10.13;;;6.00;;
71867;SDS011;59738;48.324;14.230;2023-04-16T05:33:25;9.25;;;5.57;;
71867;SDS011;59738;48.324;14.230;2023-04-16T05:35:54;8.95;;;5.47;;
71867;SDS011;59738;48.324;14.230;2023-04-16T05:38:21;8.80;;;5.45;;
71867;SDS011;59738;48.324;14.230;2023-04-16T05:40:48;8.90;;;5.32;;
71867;SDS011;59738;48.324;14.230;2023-04-16T05:43:15;10.10;;;5.27;;
71867;SDS011;59738;48.324;14.230;2023-04-16T05:45:42;9.25;;;5.93;;
71867;SDS011;59738;48.324;14.230;2023-04-16T05:48:09;9.02;;;5.85;;
71867;SDS011;59738;48.324;14.230;2023-04-16T05:50:37;9.32;;;5.70;;
71867;SDS011;59738;48.324;14.230;2023-04-16T05:53:06;10.15;;;5.47;;
71867;SDS011;59738;48.324;14.230;2023-04-16T05:55:33;8.33;;;5.30;;
71867;SDS011;59738;48.324;14.230;2023-04-16T05:58:01;10.05;;;5.60;;
71867;SDS011;59738;48.324;14.230;2023-04-16T06:00:29;10.38;;;5.47;;
71867;SDS011;59738;48.324;14.230;2023-04-16T06:02:56;10.00;;;5.57;;
71867;SDS011;59738;48.324;14.230;2023-04-16T06:05:23;9.32;;;5.75;;
71867;SDS011;59738;48.324;14.230;2023-04-16T06:07:51;14.00;;;6.53;;
71867;SDS011;59738;48.324;14.230;2023-04-16T06:10:19;11.10;;;6.28;;
71867;SDS011;59738;48.324;14.230;2023-04-16T06:12:46;11.98;;;6.20;;
71867;SDS011;59738;48.324;14.230;2023-04-16T06:15:13;11.52;;;6.38;;
71867;SDS011;59738;48.324;14.230;2023-04-16T06:17:41;11.57;;;6.38;;
71867;SDS011;59738;48.324;14.230;2023-04-16T06:20:08;10.03;;;5.60;;
71867;SDS011;59738;48.324;14.230;2023-04-16T06:22:35;11.68;;;6.18;;
71867;SDS011;59738;48.324;14.230;2023-04-16T06:25:03;10.60;;;6.25;;
71867;SDS011;59738;48.324;14.230;2023-04-16T06:27:32;10.70;;;6.35;;
71867;SDS011;59738;48.324;14.230;2023-04-16T06:29:59;10.45;;;5.80;;
71867;SDS011;59738;48.324;14.230;2023-04-16T06:32:26;10.83;;;6.57;;
71867;SDS011;59738;48.324;14.230;2023-04-16T06:34:53;10.88;;;6.40;;
71867;SDS011;59738;48.324;14.230;2023-04-16T06:37:21;13.75;;;6.90;;
71867;SDS011;59738;48.324;14.230;2023-04-16T06:39:48;12.32;;;6.63;;
71867;SDS011;59738;48.324;14.230;2023-04-16T06:42:15;12.93;;;6.75;;
71867;SDS011;59738;48.324;14.230;2023-04-16T06:44:43;11.83;;;6.33;;
71867;SDS011;59738;48.324;14.230;2023-04-16T06:47:10;10.82;;;6.30;;
71867;SDS011;59738;48.324;14.230;2023-04-16T06:49:38;11.15;;;5.57;;
71867;SDS011;59738;48.324;14.230;2023-04-16T06:52:05;10.05;;;5.75;;
71867;SDS011;59738;48.324;14.230;2023-04-16T06:54:32;9.45;;;5.78;;
71867;SDS011;59738;48.324;14.230;2023-04-16T06:56:59;10.47;;;5.97;;
71867;SDS011;59738;48.324;14.230;2023-04-16T06:59:27;11.00;;;6.32;;
71867;SDS011;59738;48.324;14.230;2023-04-16T07:01:55;10.48;;;6.03;;
71867;SDS011;59738;48.324;14.230;2023-04-16T07:04:22;13.07;;;6.78;;
71867;SDS011;59738;48.324;14.230;2023-04-16T07:06:49;9.60;;;4.97;;
71867;SDS011;59738;48.324;14.230;2023-04-16T07:09:17;8.80;;;5.23;;
71867;SDS011;59738;48.324;14.230;2023-04-16T07:11:44;10.05;;;6.00;;
71867;SDS011;59738;48.324;14.230;2023-04-16T07:14:11;9.27;;;5.45;;
71867;SDS011;59738;48.324;14.230;2023-04-16T07:16:38;8.05;;;5.45;;
71867;SDS011;59738;48.324;14.230;2023-04-16T07:19:07;10.35;;;6.25;;
71867;SDS011;59738;48.324;14.230;2023-04-16T07:21:34;10.67;;;5.70;;
71867;SDS011;59738;48.324;14.230;2023-04-16T07:24:01;11.18;;;6.13;;
71867;SDS011;59738;48.324;14.230;2023-04-16T07:26:28;10.85;;;5.88;;
71867;SDS011;59738;48.324;14.230;2023-04-16T07:28:55;11.57;;;6.55;;
71867;SDS011;59738;48.324;14.230;2023-04-16T07:31:22;11.02;;;6.10;;
71867;SDS011;59738;48.324;14.230;2023-04-16T07:33:49;10.97;;;6.77;;
71867;SDS011;59738;48.324;14.230;2023-04-16T07:36:18;10.00;;;6.40;;
71867;SDS011;59738;48.324;14.230;2023-04-16T07:38:45;11.35;;;6.95;;
71867;SDS011;59738;48.324;14.230;2023-04-16T07:41:12;10.63;;;6.43;;
71867;SDS011;59738;48.324;14.230;2023-04-16T07:43:40;12.80;;;7.35;;
71867;SDS011;59738;48.324;14.230;2023-04-16T07:46:07;11.37;;;6.70;;
71867;SDS011;59738;48.324;14.230;2023-04-16T07:48:34;15.75;;;7.32;;
71867;SDS011;59738;48.324;14.230;2023-04-16T07:51:01;14.70;;;7.75;;
71867;SDS011;59738;48.324;14.230;2023-04-16T07:53:30;12.98;;;7.10;;
71867;SDS011;59738;48.324;14.230;2023-04-16T07:55:57;13.38;;;7.85;;
71867;SDS011;59738;48.324;14.230;2023-04-16T07:58:24;12.57;;;7.73;;
71867;SDS011;59738;48.324;14.230;2023-04-16T08:00:51;13.40;;;7.85;;
71867;SDS011;59738;48.324;14.230;2023-04-16T08:03:18;14.65;;;7.93;;
71867;SDS011;59738;48.324;14.230;2023-04-16T08:05:45;13.32;;;7.75;;
71867;SDS011;59738;48.324;14.230;2023-04-16T08:08:13;14.18;;;8.07;;
71867;SDS011;59738;48.324;14.230;2023-04-16T08:10:41;13.43;;;7.83;;
71867;SDS011;59738;48.324;14.230;2023-04-16T08:13:08;14.40;;;8.40;;
71867;SDS011;59738;48.324;14.230;2023-04-16T08:15:36;15.02;;;8.68;;
71867;SDS011;59738;48.324;14.230;2023-04-16T08:18:03;13.07;;;7.82;;
71867;SDS011;59738;48.324;14.230;2023-04-16T08:20:32;15.93;;;8.85;;
71867;SDS011;59738;48.324;14.230;2023-04-16T08:22:59;14.87;;;7.80;;
71867;SDS011;59738;48.324;14.230;2023-04-16T08:25:26;13.52;;;7.65;;
71867;SDS011;59738;48.324;14.230;2023-04-16T08:27:55;13.68;;;7.95;;
71867;SDS011;59738;48.324;14.230;2023-04-16T08:30:22;13.63;;;8.43;;
71867;SDS011;59738;48.324;14.230;2023-04-16T08:32:49;12.82;;;7.60;;
71867;SDS011;59738;48.324;14.230;2023-04-16T08:35:16;14.90;;;8.23;;
71867;SDS011;59738;48.324;14.230;2023-04-16T08:37:43;11.43;;;6.97;;
71867;SDS011;59738;48.324;14.230;2023-04-16T08:40:11;20.58;;;10.18;;
71867;SDS011;59738;48.324;14.230;2023-04-16T08:42:39;13.68;;;7.88;;
71867;SDS011;59738;48.324;14.230;2023-04-16T08:45:10;13.23;;;7.10;;
71867;SDS011;59738;48.324;14.230;2023-04-16T08:47:39;13.23;;;7.47;;
71867;SDS011;59738;48.324;14.230;2023-04-16T08:50:07;12.40;;;7.32;;
71867;SDS011;59738;48.324;14.230;2023-04-16T08:52:37;12.00;;;7.47;;
71867;SDS011;59738;48.324;14.230;2023-04-16T08:55:10;12.77;;;7.65;;
71867;SDS011;59738;48.324;14.230;2023-04-16T08:57:38;13.85;;;8.23;;
71867;SDS011;59738;48.324;14.230;2023-04-16T09:00:11;13.07;;;8.00;;
71867;SDS011;59738;48.324;14.230;2023-04-16T09:02:39;13.50;;;8.15;;
71867;SDS011;59738;48.324;14.230;2023-04-16T09:05:07;15.68;;;9.18;;
71867;SDS011;59738;48.324;14.230;2023-04-16T09:07:35;14.88;;;8.75;;
71867;SDS011;59738;48.324;14.230;2023-04-16T09:10:04;12.85;;;8.10;;
71867;SDS011;59738;48.324;14.230;2023-04-16T09:12:32;13.60;;;8.73;;
71867;SDS011;59738;48.324;14.230;2023-04-16T09:15:00;14.00;;;8.75;;
71867;SDS011;59738;48.324;14.230;2023-04-16T09:17:30;19.10;;;8.52;;
71867;SDS011;59738;48.324;14.230;2023-04-16T09:19:57;12.30;;;7.75;;
71867;SDS011;59738;48.324;14.230;2023-04-16T09:22:25;13.50;;;8.02;;
71867;SDS011;59738;48.324;14.230;2023-04-16T09:24:52;11.73;;;6.47;;
71867;SDS011;59738;48.324;14.230;2023-04-16T09:27:19;10.88;;;7.10;;
71867;SDS011;59738;48.324;14.230;2023-04-16T09:29:48;13.45;;;7.47;;
71867;SDS011;59738;48.324;14.230;2023-04-16T09:32:15;11.73;;;6.97;;
71867;SDS011;59738;48.324;14.230;2023-04-16T09:34:56;11.50;;;7.40;;
71867;SDS011;59738;48.324;14.230;2023-04-16T09:37:24;10.53;;;6.17;;
71867;SDS011;59738;48.324;14.230;2023-04-16T09:39:52;10.52;;;6.63;;
71867;SDS011;59738;48.324;14.230;2023-04-16T09:42:20;10.73;;;6.13;;
71867;SDS011;59738;48.324;14.230;2023-04-16T09:44:48;12.25;;;6.82;;
71867;SDS011;59738;48.324;14.230;2023-04-16T09:47:16;13.18;;;7.57;;
71867;SDS011;59738;48.324;14.230;2023-04-16T09:49:43;13.60;;;8.57;;
71867;SDS011;59738;48.324;14.230;2023-04-16T09:52:13;13.73;;;8.07;;
71867;SDS011;59738;48.324;14.230;2023-04-16T09:54:47;15.20;;;8.02;;
71867;SDS011;59738;48.324;14.230;2023-04-16T09:57:16;14.93;;;7.88;;
71867;SDS011;59738;48.324;14.230;2023-04-16T09:59:45;10.48;;;5.68;;
71867;SDS011;59738;48.324;14.230;2023-04-16T10:02:12;9.27;;;5.73;;
71867;SDS011;59738;48.324;14.230;2023-04-16T10:04:46;10.40;;;6.15;;
71867;SDS011;59738;48.324;14.230;2023-04-16T10:07:15;10.98;;;6.85;;
71867;SDS011;59738;48.324;14.230;2023-04-16T10:09:42;10.65;;;6.13;;
71867;SDS011;59738;48.324;14.230;2023-04-16T10:12:09;11.65;;;5.38;;
71867;SDS011;59738;48.324;14.230;2023-04-16T10:14:37;9.60;;;6.10;;
71867;SDS011;59738;48.324;14.230;2023-04-16T10:17:04;7.45;;;4.90;;
71867;SDS011;59738;48.324;14.230;2023-04-16T10:19:31;11.07;;;5.68;;
71867;SDS011;59738;48.324;14.230;2023-04-16T10:21:59;8.52;;;4.85;;
71867;SDS011;59738;48.324;14.230;2023-04-16T10:24:28;7.53;;;4.82;;
71867;SDS011;59738;48.324;14.230;2023-04-16T10:26:56;8.60;;;5.33;;
71867;SDS011;59738;48.324;14.230;2023-04-16T10:29:24;7.35;;;4.63;;
71867;SDS011;59738;48.324;14.230;2023-04-16T10:31:52;7.70;;;5.05;;
71867;SDS011;59738;48.324;14.230;2023-04-16T10:34:19;7.85;;;4.78;;
71867;SDS011;59738;48.324;14.230;2023-04-16T10:36:47;7.05;;;4.80;;
71867;SDS011;59738;48.324;14.230;2023-04-16T10:39:16;8.57;;;5.00;;
71867;SDS011;59738;48.324;14.230;2023-04-16T10:41:45;10.00;;;5.55;;
71867;SDS011;59738;48.324;14.230;2023-04-16T10:44:12;7.25;;;5.18;;
71867;SDS011;59738;48.324;14.230;2023-04-16T10:46:40;8.63;;;4.65;;
71867;SDS011;59738;48.324;14.230;2023-04-16T10:49:16;7.47;;;4.90;;
71867;SDS011;59738;48.324;14.230;2023-04-16T10:51:54;8.47;;;5.40;;
71867;SDS011;59738;48.324;14.230;2023-04-16T10:54:22;7.05;;;5.00;;
71867;SDS011;59738;48.324;14.230;2023-04-16T10:56:52;5.97;;;4.43;;
71867;SDS011;59738;48.324;14.230;2023-04-16T10:59:20;6.53;;;4.65;;
71867;SDS011;59738;48.324;14.230;2023-04-16T11:01:48;9.88;;;5.55;;
71867;SDS011;59738;48.324;14.230;2023-04-16T11:04:25;9.40;;;5.33;;
71867;SDS011;59738;48.324;14.230;2023-04-16T11:07:05;10.25;;;5.55;;
71867;SDS011;59738;48.324;14.230;2023-04-16T11:09:46;12.23;;;5.88;;
71867;SDS011;59738;48.324;14.230;2023-04-16T11:12:17;6.15;;;4.32;;
71867;SDS011;59738;48.324;14.230;2023-04-16T11:14:45;8.98;;;5.55;;
71867;SDS011;59738;48.324;14.230;2023-04-16T11:17:13;10.63;;;5.07;;
71867;SDS011;59738;48.324;14.230;2023-04-16T11:19:41;12.23;;;5.63;;
71867;SDS011;59738;48.324;14.230;2023-04-16T11:22:12;6.95;;;5.05;;
71867;SDS011;59738;48.324;14.230;2023-04-16T11:24:42;7.40;;;4.95;;
71867;SDS011;59738;48.324;14.230;2023-04-16T11:27:10;8.35;;;5.03;;
71867;SDS011;59738;48.324;14.230;2023-04-16T11:29:40;8.33;;;4.70;;
71867;SDS011;59738;48.324;14.230;2023-04-16T11:32:07;8.02;;;5.28;;
71867;SDS011;59738;48.324;14.230;2023-04-16T11:34:41;7.22;;;4.88;;
71867;SDS011;59738;48.324;14.230;2023-04-16T11:37:09;7.55;;;4.88;;
71867;SDS011;59738;48.324;14.230;2023-04-16T11:39:46;8.90;;;5.60;;
71867;SDS011;59738;48.324;14.230;2023-04-16T11:42:17;6.30;;;4.43;;
71867;SDS011;59738;48.324;14.230;2023-04-16T11:44:46;6.35;;;4.88;;
71867;SDS011;59738;48.324;14.230;2023-04-16T11:47:17;8.23;;;4.85;;
71867;SDS011;59738;48.324;14.230;2023-04-16T11:49:44;7.68;;;4.65;;
71867;SDS011;59738;48.324;14.230;2023-04-16T11:52:11;6.47;;;4.70;;
71867;SDS011;59738;48.324;14.230;2023-04-16T11:54:38;8.67;;;4.93;;
71867;SDS011;59738;48.324;14.230;2023-04-16T11:57:06;7.30;;;4.93;;
71867;SDS011;59738;48.324;14.230;2023-04-16T11:59:33;7.72;;;4.55;;
71867;SDS011;59738;48.324;14.230;2023-04-16T12:02:03;6.22;;;4.60;;
71867;SDS011;59738;48.324;14.230;2023-04-16T12:04:32;7.35;;;4.22;;
71867;SDS011;59738;48.324;14.230;2023-04-16T12:07:08;7.43;;;4.63;;
71867;SDS011;59738;48.324;14.230;2023-04-16T12:09:35;11.32;;;4.88;;
71867;SDS011;59738;48.324;14.230;2023-04-16T12:12:03;7.97;;;4.80;;
71867;SDS011;59738;48.324;14.230;2023-04-16T12:14:30;6.55;;;4.55;;
71867;SDS011;59738;48.324;14.230;2023-04-16T12:19:48;6.40;;;4.30;;
71867;SDS011;59738;48.324;14.230;2023-04-16T12:22:15;6.43;;;4.20;;
71867;SDS011;59738;48.324;14.230;2023-04-16T12:24:42;7.28;;;4.82;;
71867;SDS011;59738;48.324;14.230;2023-04-16T12:27:09;6.25;;;4.10;;
71867;SDS011;59738;48.324;14.230;2023-04-16T12:29:36;6.80;;;4.80;;
71867;SDS011;59738;48.324;14.230;2023-04-16T12:32:04;5.80;;;4.40;;
71867;SDS011;59738;48.324;14.230;2023-04-16T12:34:31;6.70;;;4.00;;
71867;SDS011;59738;48.324;14.230;2023-04-16T12:37:06;6.43;;;4.43;;
71867;SDS011;59738;48.324;14.230;2023-04-16T12:39:34;6.35;;;4.28;;
71867;SDS011;59738;48.324;14.230;2023-04-16T12:42:01;7.90;;;4.53;;
71867;SDS011;59738;48.324;14.230;2023-04-16T12:44:28;5.80;;;4.03;;
71867;SDS011;59738;48.324;14.230;2023-04-16T12:46:56;5.55;;;4.18;;
71867;SDS011;59738;48.324;14.230;2023-04-16T12:49:23;5.63;;;4.28;;
71867;SDS011;59738;48.324;14.230;2023-04-16T12:51:50;6.18;;;4.40;;
71867;SDS011;59738;48.324;14.230;2023-04-16T12:54:18;6.45;;;3.95;;
71867;SDS011;59738;48.324;14.230;2023-04-16T12:56:45;5.53;;;4.23;;
71867;SDS011;59738;48.324;14.230;2023-04-16T12:59:12;6.47;;;4.40;;
71867;SDS011;59738;48.324;14.230;2023-04-16T13:01:40;6.70;;;4.78;;
71867;SDS011;59738;48.324;14.230;2023-04-16T13:04:07;4.72;;;3.88;;
71867;SDS011;59738;48.324;14.230;2023-04-16T13:06:34;5.90;;;4.20;;
71867;SDS011;59738;48.324;14.230;2023-04-16T13:09:02;6.90;;;4.47;;
71867;SDS011;59738;48.324;14.230;2023-04-16T13:11:31;6.28;;;4.22;;
71867;SDS011;59738;48.324;14.230;2023-04-16T13:13:58;7.93;;;4.60;;
71867;SDS011;59738;48.324;14.230;2023-04-16T13:16:25;6.05;;;3.67;;
71867;SDS011;59738;48.324;14.230;2023-04-16T13:18:52;6.45;;;4.22;;
71867;SDS011;59738;48.324;14.230;2023-04-16T13:21:19;6.30;;;4.20;;
71867;SDS011;59738;48.324;14.230;2023-04-16T13:23:48;6.03;;;4.25;;
71867;SDS011;59738;48.324;14.230;2023-04-16T13:26:15;6.75;;;4.80;;
71867;SDS011;59738;48.324;14.230;2023-04-16T13:28:43;6.55;;;4.20;;
71867;SDS011;59738;48.324;14.230;2023-04-16T13:31:10;7.85;;;4.03;;
71867;SDS011;59738;48.324;14.230;2023-04-16T13:33:37;5.40;;;4.10;;
71867;SDS011;59738;48.324;14.230;2023-04-16T13:36:05;7.20;;;3.75;;
71867;SDS011;59738;48.324;14.230;2023-04-16T13:38:32;5.00;;;3.78;;
71867;SDS011;59738;48.324;14.230;2023-04-16T13:40:59;6.22;;;3.85;;
71867;SDS011;59738;48.324;14.230;2023-04-16T13:43:26;5.25;;;4.20;;
71867;SDS011;59738;48.324;14.230;2023-04-16T13:45:54;5.73;;;3.87;;
71867;SDS011;59738;48.324;14.230;2023-04-16T13:48:21;6.07;;;3.80;;
71867;SDS011;59738;48.324;14.230;2023-04-16T13:50:49;4.90;;;3.47;;
71867;SDS011;59738;48.324;14.230;2023-04-16T13:53:16;5.22;;;3.90;;
71867;SDS011;59738;48.324;14.230;2023-04-16T13:55:43;5.45;;;3.80;;
71867;SDS011;59738;48.324;14.230;2023-04-16T13:58:10;4.37;;;3.43;;
71867;SDS011;59738;48.324;14.230;2023-04-16T14:00:37;5.97;;;3.90;;
71867;SDS011;59738;48.324;14.230;2023-04-16T14:03:05;6.88;;;3.35;;
71867;SDS011;59738;48.324;14.230;2023-04-16T14:05:32;4.95;;;3.58;;
71867;SDS011;59738;48.324;14.230;2023-04-16T14:07:59;5.45;;;4.05;;
71867;SDS011;59738;48.324;14.230;2023-04-16T14:10:27;5.10;;;3.73;;
71867;SDS011;59738;48.324;14.230;2023-04-16T14:12:54;5.75;;;3.70;;
71867;SDS011;59738;48.324;14.230;2023-04-16T14:15:21;4.63;;;3.70;;
71867;SDS011;59738;48.324;14.230;2023-04-16T14:17:48;5.40;;;3.63;;
71867;SDS011;59738;48.324;14.230;2023-04-16T14:20:16;6.80;;;3.60;;
71867;SDS011;59738;48.324;14.230;2023-04-16T14:22:43;4.77;;;3.70;;
71867;SDS011;59738;48.324;14.230;2023-04-16T14:25:11;5.03;;;3.67;;
71867;SDS011;59738;48.324;14.230;2023-04-16T14:27:38;6.22;;;4.00;;
71867;SDS011;59738;48.324;14.230;2023-04-16T14:30:06;5.53;;;3.97;;
71867;SDS011;59738;48.324;14.230;2023-04-16T14:32:33;4.80;;;3.85;;
71867;SDS011;59738;48.324;14.230;2023-04-16T14:35:00;4.53;;;3.47;;
71867;SDS011;59738;48.324;14.230;2023-04-16T14:37:30;4.15;;;3.53;;